Terminal Aerodrome Forecast
Issued by NWS St Louis, MO

Home | Current Version | Previous Version | Text Only | Print | Product List | Glossary On
Versions: 1 2 3 4 5 6 7 8 9 10 11 12 13 14 15 16 17 18
000
FTUS43 KLSX 231700 AAA
TAFCOU
TAF AMD
KCOU 231713Z 2317/2412 24005KT P6SM SCT020
      TEMPO 2317/2319 BKN015
     FM241100 30010KT P6SM SCT080=

USA.gov is the U.S. government's official web portal to all federal, state and local government web resources and services.